createdAt,value
2022-11-24T00:02:25.910Z,23.40
2022-11-24T00:05:20.394Z,23.40
2022-11-24T00:08:14.902Z,23.50
2022-11-24T00:11:17.849Z,23.50
2022-11-24T00:14:12.977Z,23.50
2022-11-24T00:17:07.471Z,23.60
2022-11-24T00:20:01.923Z,23.70
2022-11-24T00:22:57.215Z,23.70
2022-11-24T00:25:51.594Z,23.80
2022-11-24T00:28:48.510Z,24.00
2022-11-24T00:31:44.090Z,23.90
2022-11-24T00:34:38.525Z,24.00
2022-11-24T00:37:32.934Z,24.10
2022-11-24T00:40:30.813Z,24.30
2022-11-24T00:43:28.188Z,24.40
2022-11-24T00:46:23.457Z,24.50
2022-11-24T00:49:18.101Z,24.50
2022-11-24T00:52:12.479Z,24.50
2022-11-24T00:55:07.130Z,24.70
2022-11-24T00:58:01.491Z,24.70
2022-11-24T01:00:56.428Z,24.80
2022-11-24T01:03:52.399Z,24.80
2022-11-24T01:06:47.362Z,24.90
2022-11-24T01:09:44.867Z,25.10
2022-11-24T01:12:39.823Z,25.20
2022-11-24T01:15:37.987Z,25.30
2022-11-24T01:21:10.139Z,25.50
2022-11-24T01:24:04.882Z,25.60
2022-11-24T01:26:59.341Z,25.70
2022-11-24T01:29:53.706Z,25.70
2022-11-24T01:32:48.106Z,25.80
2022-11-24T01:35:42.438Z,25.80
2022-11-24T01:38:37.148Z,25.90
2022-11-24T01:41:32.597Z,25.80
2022-11-24T01:44:30.415Z,25.90
2022-11-24T01:47:37.887Z,26.00
2022-11-24T01:50:32.641Z,26.10
2022-11-24T01:53:27.374Z,26.20
2022-11-24T01:56:22.578Z,26.30
2022-11-24T01:59:19.722Z,26.40
2022-11-24T02:02:14.059Z,26.40
2022-11-24T02:05:13.957Z,26.30
2022-11-24T02:08:16.824Z,26.40
2022-11-24T02:11:11.154Z,26.50
2022-11-24T02:14:08.863Z,26.70
2022-11-24T02:17:03.200Z,26.60
2022-11-24T02:20:09.828Z,26.50
2022-11-24T02:23:20.308Z,26.50
2022-11-24T02:26:46.245Z,26.70
2022-11-24T02:29:41.732Z,26.90
2022-11-24T02:32:36.521Z,27.00
2022-11-24T02:35:31.373Z,27.20
2022-11-24T02:38:34.082Z,27.20
2022-11-24T02:41:30.699Z,27.30
2022-11-24T02:44:30.428Z,27.20
2022-11-24T02:47:25.011Z,27.30
2022-11-24T02:50:19.518Z,27.30
2022-11-24T02:53:14.063Z,27.30
2022-11-24T02:56:08.980Z,27.40
2022-11-24T02:59:03.482Z,27.50
2022-11-24T03:01:58.022Z,27.60
2022-11-24T03:04:52.455Z,27.60
2022-11-24T03:07:47.037Z,27.70
2022-11-24T03:10:41.672Z,27.80
2022-11-24T03:13:36.188Z,28.00
2022-11-24T03:16:31.339Z,28.10
2022-11-24T03:19:25.702Z,28.30
2022-11-24T03:22:20.091Z,28.40
2022-11-24T03:25:14.503Z,28.50
2022-11-24T03:28:08.977Z,28.50
2022-11-24T03:31:04.006Z,28.50
2022-11-24T03:33:58.467Z,28.40
2022-11-24T03:36:52.971Z,28.50
2022-11-24T03:39:47.753Z,28.50
2022-11-24T03:42:42.944Z,28.40
2022-11-24T03:45:45.944Z,28.30
2022-11-24T03:48:41.463Z,28.40
2022-11-24T03:51:35.944Z,28.50
2022-11-24T03:54:30.389Z,28.60
2022-11-24T03:57:24.850Z,28.70
2022-11-24T04:00:19.844Z,28.70
2022-11-24T04:03:14.313Z,28.70
2022-11-24T04:06:08.985Z,28.70
2022-11-24T04:09:03.381Z,28.60
2022-11-24T04:12:15.846Z,28.60
2022-11-24T04:15:10.564Z,28.60
2022-11-24T04:18:05.067Z,28.70
2022-11-24T04:20:59.548Z,28.80
2022-11-24T04:23:53.945Z,28.90
2022-11-24T04:26:48.327Z,29.00
2022-11-24T04:29:42.739Z,28.80
2022-11-24T04:32:37.842Z,28.80
2022-11-24T04:35:32.331Z,28.80
2022-11-24T04:39:24.035Z,28.90
2022-11-24T04:41:41.133Z,28.90
2022-11-24T04:44:35.818Z,28.90
2022-11-24T04:47:30.731Z,28.90
2022-11-24T04:50:25.290Z,29.00
2022-11-24T04:53:19.971Z,29.00
2022-11-24T04:56:14.479Z,29.00
2022-11-24T04:59:08.972Z,28.90
2022-11-24T05:02:03.582Z,29.00
2022-11-24T05:04:58.106Z,29.00
2022-11-24T05:07:52.631Z,28.80
2022-11-24T05:10:47.182Z,28.70
2022-11-24T05:13:41.635Z,28.70
2022-11-24T05:16:37.235Z,28.60
2022-11-24T05:19:32.469Z,28.60
2022-11-24T05:22:27.497Z,28.70
2022-11-24T05:25:21.957Z,28.70
2022-11-24T05:28:16.625Z,28.70
2022-11-24T05:31:11.318Z,28.70
2022-11-24T05:34:05.756Z,28.70
2022-11-24T05:37:04.242Z,28.70
2022-11-24T05:39:59.048Z,28.70
2022-11-24T05:42:53.602Z,28.70
2022-11-24T05:45:48.434Z,28.70
2022-11-24T05:48:42.860Z,28.60
2022-11-24T05:51:37.446Z,28.70
2022-11-24T05:54:32.111Z,28.80
2022-11-24T05:57:26.914Z,28.90
2022-11-24T06:00:21.477Z,28.90
2022-11-24T06:03:16.037Z,28.90
2022-11-24T06:06:10.610Z,28.90
2022-11-24T06:09:05.882Z,28.90
2022-11-24T06:12:00.313Z,28.90
2022-11-24T06:14:54.780Z,28.90
2022-11-24T06:17:58.316Z,28.80
2022-11-24T06:21:09.740Z,28.80
2022-11-24T06:24:05.152Z,28.80
2022-11-24T06:26:59.585Z,28.70
2022-11-24T06:29:54.484Z,28.70
2022-11-24T06:32:50.182Z,28.70
2022-11-24T06:35:44.656Z,28.70
2022-11-24T06:38:39.472Z,28.80
2022-11-24T06:41:34.240Z,28.70
2022-11-24T06:44:28.775Z,28.80
2022-11-24T06:47:23.257Z,28.90
2022-11-24T06:50:17.928Z,28.90
2022-11-24T06:53:13.848Z,28.90
2022-11-24T06:56:15.682Z,28.80
2022-11-24T06:59:21.193Z,28.80
2022-11-24T07:02:15.548Z,28.90
2022-11-24T07:05:10.184Z,28.90
2022-11-24T07:08:04.585Z,28.90
2022-11-24T07:10:59.090Z,29.00
2022-11-24T07:13:59.465Z,29.10
2022-11-24T07:16:54.606Z,29.10
2022-11-24T07:19:49.185Z,29.10
2022-11-24T07:22:43.662Z,29.10
2022-11-24T07:25:38.169Z,29.10
2022-11-24T07:28:33.009Z,29.10
2022-11-24T07:31:27.466Z,29.10
2022-11-24T07:34:21.907Z,29.20
2022-11-24T07:37:16.443Z,29.20
2022-11-24T07:40:11.711Z,29.20
2022-11-24T07:43:06.111Z,29.00
2022-11-24T07:46:01.452Z,29.00
2022-11-24T07:48:56.031Z,29.00
2022-11-24T07:51:50.534Z,29.00
2022-11-24T07:54:44.973Z,28.90
2022-11-24T07:57:39.510Z,28.90
2022-11-24T08:00:34.057Z,28.90
2022-11-24T08:03:28.868Z,28.90
2022-11-24T08:06:26.558Z,28.80
2022-11-24T08:09:23.406Z,28.70
2022-11-24T08:12:26.972Z,28.70
2022-11-24T08:15:21.500Z,28.60
2022-11-24T08:18:16.007Z,28.40
2022-11-24T08:21:15.118Z,28.30
2022-11-24T08:24:10.319Z,28.20
2022-11-24T08:27:04.837Z,28.10
2022-11-24T08:29:59.361Z,28.10
2022-11-24T08:32:53.865Z,28.00
2022-11-24T08:35:48.335Z,27.90
2022-11-24T08:38:42.772Z,27.80
2022-11-24T08:41:37.198Z,27.70
2022-11-24T08:44:31.530Z,27.40
2022-11-24T08:47:26.052Z,27.20
2022-11-24T08:50:20.484Z,26.90
2022-11-24T08:53:14.879Z,26.80
2022-11-24T08:56:10.660Z,26.80
2022-11-24T08:59:05.692Z,26.70
2022-11-24T09:02:00.402Z,26.50
2022-11-24T09:04:54.926Z,26.40
2022-11-24T09:07:49.344Z,26.20
2022-11-24T09:10:44.385Z,26.10
2022-11-24T09:13:39.913Z,25.90
2022-11-24T09:16:34.562Z,25.80
2022-11-24T09:19:28.974Z,25.70
2022-11-24T09:22:23.570Z,25.60
2022-11-24T09:25:18.554Z,25.50
2022-11-24T09:28:13.157Z,25.30
2022-11-24T09:31:09.753Z,25.10
2022-11-24T09:34:06.418Z,25.00
2022-11-24T09:37:00.775Z,24.90
2022-11-24T09:39:55.460Z,24.80
2022-11-24T09:43:02.938Z,24.70
2022-11-24T09:46:34.706Z,24.70
2022-11-24T09:49:51.623Z,24.50
2022-11-24T09:53:02.758Z,24.40
2022-11-24T09:56:07.448Z,24.30
2022-11-24T09:59:24.309Z,24.30
2022-11-24T10:02:18.679Z,24.20
2022-11-24T10:05:14.897Z,24.10
2022-11-24T10:08:24.722Z,24.10
2022-11-24T10:11:44.058Z,24.10
2022-11-24T10:14:58.990Z,24.00
2022-11-24T10:18:16.980Z,23.90
2022-11-24T10:21:23.642Z,23.90
2022-11-24T10:24:29.849Z,23.90
2022-11-24T10:27:47.297Z,23.90
2022-11-24T10:30:41.953Z,23.80
2022-11-24T10:33:37.011Z,23.80
2022-11-24T10:36:52.594Z,23.80
2022-11-24T10:40:21.309Z,23.70
2022-11-24T10:43:24.848Z,23.70
2022-11-24T10:46:28.047Z,23.60
2022-11-24T10:49:31.101Z,23.50
2022-11-24T10:52:28.367Z,23.50
2022-11-24T10:55:22.337Z,23.50
2022-11-24T10:58:23.142Z,23.50
2022-11-24T11:01:17.668Z,23.40
2022-11-24T11:04:23.302Z,23.30
2022-11-24T11:07:24.144Z,23.30
2022-11-24T11:10:26.627Z,23.30
2022-11-24T11:13:32.471Z,23.30
2022-11-24T11:16:39.305Z,23.20
2022-11-24T11:19:52.400Z,23.20
2022-11-24T11:22:51.020Z,23.20
2022-11-24T11:25:45.526Z,23.10
2022-11-24T11:28:40.456Z,23.00
2022-11-24T11:31:35.491Z,22.90
2022-11-24T11:34:38.552Z,22.90
2022-11-24T11:37:35.312Z,22.90
2022-11-24T11:40:32.262Z,22.80
2022-11-24T11:43:36.778Z,22.80
2022-11-24T11:46:34.525Z,22.70
2022-11-24T11:49:29.478Z,22.70
2022-11-24T11:52:53.309Z,22.70
2022-11-24T11:56:05.053Z,22.70
2022-11-24T11:59:17.919Z,22.70
2022-11-24T12:02:38.611Z,22.60
2022-11-24T12:05:42.714Z,22.60
2022-11-24T12:09:19.832Z,22.50
2022-11-24T12:12:45.226Z,22.60
2022-11-24T12:15:53.621Z,22.50
2022-11-24T12:19:16.833Z,22.40
2022-11-24T12:22:20.688Z,22.40
2022-11-24T12:25:59.775Z,22.30
2022-11-24T12:29:03.316Z,22.30
2022-11-24T12:32:07.646Z,22.30
2022-11-24T12:35:29.961Z,22.30
2022-11-24T12:38:57.167Z,22.20
2022-11-24T12:42:01.912Z,22.20
2022-11-24T12:45:05.469Z,22.10
2022-11-24T12:48:12.626Z,22.10
2022-11-24T12:51:13.012Z,22.10
2022-11-24T12:54:15.016Z,22.00
2022-11-24T12:57:18.983Z,21.90
2022-11-24T13:00:23.749Z,21.90
2022-11-24T13:03:38.153Z,21.80
2022-11-24T13:06:56.957Z,21.80
2022-11-24T13:10:40.468Z,21.80
2022-11-24T13:14:14.853Z,21.80
2022-11-24T13:17:47.498Z,21.80
2022-11-24T13:20:48.930Z,21.70
2022-11-24T13:23:43.352Z,21.70
2022-11-24T13:26:41.698Z,21.60
2022-11-24T13:29:38.437Z,21.50
2022-11-24T13:32:35.839Z,21.50
2022-11-24T13:35:30.982Z,21.40
2022-11-24T13:38:54.537Z,21.30
2022-11-24T13:42:01.528Z,21.30
2022-11-24T13:44:58.802Z,21.20
2022-11-24T13:47:52.619Z,21.10
2022-11-24T13:50:57.228Z,21.00
2022-11-24T13:53:52.854Z,20.90
2022-11-24T13:56:47.269Z,20.80
2022-11-24T13:59:41.634Z,20.80
2022-11-24T14:02:36.246Z,20.70
2022-11-24T14:05:42.343Z,20.70
2022-11-24T14:08:40.004Z,20.60
2022-11-24T14:11:34.593Z,20.60
2022-11-24T14:14:29.870Z,20.60
2022-11-24T14:17:29.702Z,20.60
2022-11-24T14:20:30.313Z,20.60
2022-11-24T14:23:25.152Z,20.70
2022-11-24T14:26:33.172Z,20.70
2022-11-24T14:29:34.176Z,20.70
2022-11-24T14:32:28.849Z,20.70
2022-11-24T14:35:34.598Z,20.70
2022-11-24T14:38:29.380Z,20.70
2022-11-24T14:41:27.282Z,20.80
2022-11-24T14:44:47.606Z,20.80
2022-11-24T14:47:47.387Z,20.80
2022-11-24T14:50:42.164Z,20.90
2022-11-24T14:53:37.182Z,20.80
2022-11-24T14:56:35.829Z,20.80
2022-11-24T14:59:32.321Z,20.80
2022-11-24T15:03:03.891Z,20.80
2022-11-24T15:06:01.734Z,20.70
2022-11-24T15:08:56.272Z,20.70
2022-11-24T15:11:50.962Z,20.70
2022-11-24T15:14:56.241Z,20.60
2022-11-24T15:17:56.632Z,20.50
2022-11-24T15:20:51.024Z,20.50
2022-11-24T15:24:05.177Z,20.50
2022-11-24T15:27:03.113Z,20.40
2022-11-24T15:29:57.471Z,20.40
2022-11-24T15:32:57.281Z,20.30
2022-11-24T15:35:51.836Z,20.20
2022-11-24T15:38:46.278Z,20.20
2022-11-24T15:41:42.103Z,20.10
2022-11-24T15:44:36.811Z,20.10
2022-11-24T15:47:31.410Z,20.00
2022-11-24T15:50:25.816Z,20.00
2022-11-24T15:53:25.134Z,20.00
2022-11-24T15:56:40.317Z,19.90
2022-11-24T15:59:35.129Z,19.90
2022-11-24T16:02:29.977Z,19.80
2022-11-24T16:05:24.357Z,19.80
2022-11-24T16:08:18.898Z,19.70
2022-11-24T16:11:13.355Z,19.70
2022-11-24T16:14:07.894Z,19.60
2022-11-24T16:17:02.465Z,19.60
2022-11-24T16:20:00.753Z,19.50
2022-11-24T16:22:56.507Z,19.50
2022-11-24T16:25:51.044Z,19.50
2022-11-24T16:28:46.903Z,19.50
2022-11-24T16:31:41.358Z,19.40
2022-11-24T16:34:35.908Z,19.40
2022-11-24T16:37:30.635Z,19.40
2022-11-24T16:40:25.070Z,19.30
2022-11-24T16:43:19.815Z,19.30
2022-11-24T16:46:19.560Z,19.30
2022-11-24T16:49:14.312Z,19.30
2022-11-24T16:52:09.743Z,19.20
2022-11-24T16:55:05.011Z,19.10
2022-11-24T16:57:59.681Z,19.10
2022-11-24T17:00:54.181Z,19.00
2022-11-24T17:03:48.646Z,19.00
2022-11-24T17:06:43.124Z,18.90
2022-11-24T17:09:40.505Z,18.90
2022-11-24T17:12:39.040Z,18.90
2022-11-24T17:15:37.818Z,18.80
2022-11-24T17:18:36.098Z,18.80
2022-11-24T17:21:30.578Z,18.80
2022-11-24T17:24:25.047Z,18.70
2022-11-24T17:27:19.470Z,18.70
2022-11-24T17:30:14.263Z,18.70
2022-11-24T17:33:09.045Z,18.60
2022-11-24T17:36:07.552Z,18.60
2022-11-24T17:39:04.443Z,18.50
2022-11-24T17:41:59.225Z,18.50
2022-11-24T17:44:53.760Z,18.40
2022-11-24T17:47:48.186Z,18.40
2022-11-24T17:50:42.598Z,18.40
2022-11-24T17:53:40.546Z,18.30
2022-11-24T17:56:34.873Z,18.30
2022-11-24T17:59:29.305Z,18.30
2022-11-24T18:02:23.774Z,18.20
2022-11-24T18:05:18.272Z,18.20
2022-11-24T18:08:13.380Z,18.20
2022-11-24T18:11:08.604Z,18.10
2022-11-24T18:14:05.190Z,18.10
2022-11-24T18:16:59.633Z,18.10
2022-11-24T18:19:54.002Z,18.00
2022-11-24T18:23:05.143Z,18.10
2022-11-24T18:26:02.675Z,18.00
2022-11-24T18:28:57.220Z,18.10
2022-11-24T18:31:51.623Z,18.10
2022-11-24T18:34:46.039Z,18.00
2022-11-24T18:37:45.235Z,18.00
2022-11-24T18:40:43.012Z,18.00
2022-11-24T18:43:39.482Z,17.90
2022-11-24T18:46:33.994Z,17.90
2022-11-24T18:49:28.401Z,17.90
2022-11-24T18:52:22.988Z,17.90
2022-11-24T18:55:17.501Z,17.80
2022-11-24T18:58:11.981Z,17.70
2022-11-24T19:01:09.800Z,17.70
2022-11-24T19:04:04.917Z,17.70
2022-11-24T19:06:59.313Z,17.60
2022-11-24T19:09:53.832Z,17.60
2022-11-24T19:12:48.248Z,17.60
2022-11-24T19:15:42.663Z,17.60
2022-11-24T19:18:36.989Z,17.50
2022-11-24T19:21:34.560Z,17.50
2022-11-24T19:24:29.168Z,17.50
2022-11-24T19:27:23.652Z,17.50
2022-11-24T19:30:18.967Z,17.40
2022-11-24T19:33:13.765Z,17.40
2022-11-24T19:36:14.972Z,17.40
2022-11-24T19:39:09.521Z,17.40
2022-11-24T19:42:05.949Z,17.40
2022-11-24T19:45:00.635Z,17.40
2022-11-24T19:47:54.961Z,17.30
2022-11-24T19:50:49.360Z,17.30
2022-11-24T19:53:44.426Z,17.20
2022-11-24T19:56:39.213Z,17.20
2022-11-24T19:59:33.563Z,17.20
2022-11-24T20:02:29.660Z,17.20
2022-11-24T20:05:24.052Z,17.20
2022-11-24T20:08:18.462Z,17.20
2022-11-24T20:11:18.238Z,17.20
2022-11-24T20:14:14.729Z,17.20
2022-11-24T20:17:09.103Z,17.20
2022-11-24T20:20:03.580Z,17.20
2022-11-24T20:22:57.986Z,17.20
2022-11-24T20:25:52.518Z,17.20
2022-11-24T20:28:46.961Z,17.20
2022-11-24T20:31:47.189Z,17.20
2022-11-24T20:34:41.674Z,17.30
2022-11-24T20:37:38.413Z,17.40
2022-11-24T20:40:32.792Z,17.50
2022-11-24T20:43:27.242Z,17.60
2022-11-24T20:46:33.643Z,17.70
2022-11-24T20:49:29.252Z,17.80
2022-11-24T20:52:23.707Z,18.00
2022-11-24T20:55:18.277Z,18.10
2022-11-24T20:58:12.775Z,18.20
2022-11-24T21:01:08.282Z,18.30
2022-11-24T21:04:04.266Z,18.40
2022-11-24T21:06:58.949Z,18.60
2022-11-24T21:09:53.449Z,18.70
2022-11-24T21:12:47.839Z,18.90
2022-11-24T21:15:42.321Z,19.10
2022-11-24T21:18:36.715Z,19.20
2022-11-24T21:21:35.683Z,19.30
2022-11-24T21:24:32.288Z,19.50
2022-11-24T21:27:28.315Z,19.60
2022-11-24T21:30:22.737Z,19.80
2022-11-24T21:33:18.149Z,19.90
2022-11-24T21:36:12.814Z,20.00
2022-11-24T21:39:07.299Z,20.20
2022-11-24T21:42:01.886Z,20.30
2022-11-24T21:44:56.305Z,20.40
2022-11-24T21:47:51.251Z,20.60
2022-11-24T21:50:45.582Z,20.80
2022-11-24T21:53:40.878Z,20.90
2022-11-24T21:56:35.233Z,21.10
2022-11-24T21:59:29.839Z,21.50
2022-11-24T22:02:24.425Z,21.90
2022-11-24T22:05:19.095Z,22.50
2022-11-24T22:08:13.463Z,23.00
2022-11-24T22:11:13.796Z,23.60
2022-11-24T22:14:09.975Z,24.10
2022-11-24T22:17:04.334Z,24.70
2022-11-24T22:19:58.713Z,25.00
2022-11-24T22:22:53.918Z,25.40
2022-11-24T22:25:48.328Z,25.70
2022-11-24T22:28:43.345Z,25.90
2022-11-24T22:31:37.833Z,26.20
2022-11-24T22:34:32.590Z,26.40
2022-11-24T22:37:27.114Z,26.60
2022-11-24T22:40:21.758Z,26.80
2022-11-24T22:43:20.200Z,27.00
2022-11-24T22:46:20.216Z,27.30
2022-11-24T22:49:14.764Z,27.40
2022-11-24T22:52:09.204Z,27.50
2022-11-24T22:55:03.529Z,27.50
2022-11-24T22:57:58.113Z,27.50
2022-11-24T23:00:52.489Z,27.60
2022-11-24T23:03:48.005Z,27.70
2022-11-24T23:06:43.250Z,27.80
2022-11-24T23:09:37.660Z,27.90
2022-11-24T23:12:32.112Z,28.00
2022-11-24T23:15:26.601Z,28.00
2022-11-24T23:18:20.941Z,28.00
2022-11-24T23:21:18.141Z,28.00
2022-11-24T23:24:13.036Z,28.10
2022-11-24T23:27:07.740Z,28.20
2022-11-24T23:30:02.181Z,28.40
2022-11-24T23:32:56.840Z,28.40
2022-11-24T23:35:51.315Z,28.50
2022-11-24T23:38:46.830Z,28.60
2022-11-24T23:41:41.490Z,28.60
2022-11-24T23:44:37.415Z,28.70
2022-11-24T23:47:32.125Z,28.70
2022-11-24T23:50:26.492Z,28.80
2022-11-24T23:53:21.005Z,28.90
2022-11-24T23:56:20.869Z,29.00
2022-11-24T23:59:15.398Z,29.00
